createdAt,value
2022-10-21T00:04:41.807Z,74.71
2022-10-21T00:09:43.652Z,74.56
2022-10-21T00:14:45.445Z,74.13
2022-10-21T00:19:47.310Z,73.82
2022-10-21T00:24:49.258Z,74.31
2022-10-21T00:29:50.979Z,74.69
2022-10-21T00:34:53.019Z,75.13
2022-10-21T00:39:55.103Z,74.85
2022-10-21T00:45:09.177Z,74.81
2022-10-21T00:50:32.648Z,74.79
2022-10-21T00:55:39.607Z,75.11
2022-10-21T01:00:41.481Z,75.71
2022-10-21T01:05:44.677Z,76.34
2022-10-21T01:10:47.730Z,76.97
2022-10-21T01:16:04.779Z,77.32
2022-10-21T01:21:15.680Z,77.58
2022-10-21T01:26:38.569Z,77.82
2022-10-21T01:31:50.757Z,78.14
2022-10-21T01:37:17.440Z,78.03
2022-10-21T01:42:35.144Z,77.49
2022-10-21T01:47:42.381Z,77.25
2022-10-21T01:53:03.448Z,76.49
2022-10-21T01:58:29.007Z,76.94
2022-10-21T02:03:35.085Z,76.44
2022-10-21T02:08:37.142Z,76.07
2022-10-21T02:13:51.578Z,75.39
2022-10-21T02:18:55.539Z,75.39
2022-10-21T02:24:02.976Z,75.83
2022-10-21T02:29:05.155Z,76.19
2022-10-21T02:34:30.174Z,76.12
2022-10-21T02:39:41.313Z,76.79
2022-10-21T02:44:43.066Z,77.58
2022-10-21T02:49:46.138Z,78.14
2022-10-21T02:54:48.093Z,78.60
2022-10-21T02:59:50.033Z,78.93
2022-10-21T03:04:51.939Z,79.26
2022-10-21T03:09:53.813Z,79.33
2022-10-21T03:14:55.593Z,79.37
2022-10-21T03:19:57.465Z,79.30
2022-10-21T03:24:59.401Z,79.09
2022-10-21T03:30:01.446Z,78.90
2022-10-21T03:35:17.505Z,78.55
2022-10-21T03:40:20.085Z,78.10
2022-10-21T03:45:21.820Z,77.76
2022-10-21T03:50:26.371Z,77.26
2022-10-21T03:55:28.996Z,77.28
2022-10-21T04:00:31.803Z,77.30
2022-10-21T04:05:34.349Z,77.39
2022-10-21T04:10:36.162Z,77.07
2022-10-21T04:15:38.146Z,76.36
2022-10-21T04:20:39.953Z,76.53
2022-10-21T04:25:44.674Z,76.91
2022-10-21T04:30:57.809Z,76.39
2022-10-21T04:35:59.750Z,75.95
2022-10-21T04:41:03.632Z,76.17
2022-10-21T04:46:12.025Z,75.95
2022-10-21T04:51:14.205Z,76.22
2022-10-21T04:56:16.202Z,75.99
2022-10-21T05:01:17.960Z,75.98
2022-10-21T05:06:40.422Z,75.52
2022-10-21T05:11:49.173Z,75.22
2022-10-21T05:16:50.955Z,75.51
2022-10-21T05:21:59.427Z,76.01
2022-10-21T05:27:07.838Z,75.70
2022-10-21T05:32:09.634Z,76.37
2022-10-21T05:37:11.365Z,76.54
2022-10-21T05:42:13.373Z,76.91
2022-10-21T05:47:15.542Z,76.82
2022-10-21T05:52:17.267Z,76.62
2022-10-21T05:57:19.049Z,76.60
2022-10-21T06:02:20.967Z,76.57
2022-10-21T06:07:22.992Z,76.45
2022-10-21T06:12:25.378Z,76.37
2022-10-21T06:17:37.965Z,76.34
2022-10-21T06:22:40.000Z,76.19
2022-10-21T06:27:41.961Z,75.92
2022-10-21T06:32:43.868Z,75.72
2022-10-21T06:37:45.813Z,75.80
2022-10-21T06:43:08.453Z,76.01
2022-10-21T06:48:23.885Z,76.11
2022-10-21T06:53:26.218Z,76.17
2022-10-21T06:58:28.103Z,76.01
2022-10-21T07:03:30.101Z,76.20
2022-10-21T07:08:46.537Z,75.89
2022-10-21T07:13:55.809Z,75.49
2022-10-21T07:18:58.361Z,75.29
2022-10-21T07:24:00.880Z,75.20
2022-10-21T07:29:03.137Z,74.83
2022-10-21T07:34:08.136Z,74.57
2022-10-21T07:39:14.189Z,74.15
2022-10-21T07:44:17.306Z,73.96
2022-10-21T07:49:20.743Z,73.49
2022-10-21T07:54:23.145Z,72.83
2022-10-21T07:59:25.127Z,72.31
2022-10-21T08:04:29.913Z,71.62
2022-10-21T08:09:31.939Z,71.27
2022-10-21T08:14:34.557Z,70.15
2022-10-21T08:19:36.633Z,69.56
2022-10-21T08:24:41.532Z,69.10
2022-10-21T08:29:44.480Z,68.47
2022-10-21T08:34:46.258Z,67.26
2022-10-21T08:39:48.236Z,65.73
2022-10-21T08:45:03.218Z,64.71
2022-10-21T08:50:13.684Z,64.40
2022-10-21T08:55:22.301Z,64.10
2022-10-21T09:00:31.143Z,63.70
2022-10-21T09:05:45.498Z,63.62
2022-10-21T09:11:19.988Z,63.63
2022-10-21T09:16:33.695Z,63.60
2022-10-21T09:21:40.518Z,63.60
2022-10-21T09:26:45.812Z,63.70
2022-10-21T09:31:54.344Z,63.84
2022-10-21T09:37:00.715Z,63.74
2022-10-21T09:42:29.226Z,63.58
2022-10-21T09:47:34.954Z,63.49
2022-10-21T09:52:38.458Z,63.31
2022-10-21T09:57:47.042Z,63.05
2022-10-21T10:02:49.808Z,62.86
2022-10-21T10:07:51.906Z,62.47
2022-10-21T10:13:01.681Z,62.08
2022-10-21T10:18:05.157Z,61.50
2022-10-21T10:23:09.929Z,61.25
2022-10-21T10:28:11.718Z,60.96
2022-10-21T10:33:22.050Z,60.87
2022-10-21T10:38:29.388Z,60.71
2022-10-21T10:43:32.068Z,60.62
2022-10-21T10:48:48.637Z,60.72
2022-10-21T10:54:01.639Z,59.85
2022-10-21T10:59:28.531Z,59.89
2022-10-21T11:05:04.238Z,60.24
2022-10-21T11:10:37.205Z,60.86
2022-10-21T11:15:57.228Z,60.72
2022-10-21T11:21:37.418Z,59.69
2022-10-21T11:26:52.565Z,58.78
2022-10-21T11:32:32.517Z,56.84
2022-10-21T11:38:06.611Z,55.52
2022-10-21T11:43:26.857Z,56.35
2022-10-21T11:48:31.804Z,56.27
2022-10-21T11:54:03.410Z,55.85
2022-10-21T11:59:35.358Z,55.32
2022-10-21T12:04:51.372Z,55.05
2022-10-21T12:10:10.163Z,54.40
2022-10-21T12:15:27.137Z,54.04
2022-10-21T12:20:29.262Z,53.62
2022-10-21T12:26:14.297Z,53.60
2022-10-21T12:31:45.495Z,54.33
2022-10-21T12:36:50.952Z,54.13
2022-10-21T12:42:14.486Z,53.96
2022-10-21T12:47:34.910Z,54.18
2022-10-21T12:52:40.332Z,54.24
2022-10-21T12:57:43.516Z,54.34
2022-10-21T13:03:05.640Z,54.19
2022-10-21T13:08:22.877Z,54.45
2022-10-21T13:13:38.919Z,54.63
2022-10-21T13:18:58.017Z,54.91
2022-10-21T13:24:25.494Z,55.31
2022-10-21T13:29:37.177Z,55.45
2022-10-21T13:34:43.223Z,55.56
2022-10-21T13:39:51.864Z,55.59
2022-10-21T13:45:29.559Z,55.73
2022-10-21T13:50:38.564Z,55.80
2022-10-21T13:55:40.405Z,55.45
2022-10-21T14:00:42.345Z,55.27
2022-10-21T14:05:55.265Z,54.92
2022-10-21T14:11:12.526Z,55.17
2022-10-21T14:16:22.411Z,55.77
2022-10-21T14:21:27.813Z,56.02
2022-10-21T14:26:34.673Z,56.40
2022-10-21T14:31:36.516Z,56.86
2022-10-21T14:37:00.872Z,57.35
2022-10-21T14:42:08.959Z,57.87
2022-10-21T14:47:24.018Z,58.37
2022-10-21T14:52:53.537Z,58.69
2022-10-21T14:58:07.799Z,59.21
2022-10-21T15:03:12.282Z,59.42
2022-10-21T15:08:20.400Z,59.66
2022-10-21T15:13:22.907Z,59.92
2022-10-21T15:18:28.990Z,60.27
2022-10-21T15:23:41.272Z,60.56
2022-10-21T15:28:43.312Z,60.77
2022-10-21T15:33:45.376Z,60.88
2022-10-21T15:38:48.835Z,60.92
2022-10-21T15:44:09.553Z,60.90
2022-10-21T15:49:34.572Z,61.01
2022-10-21T15:54:47.418Z,61.04
2022-10-21T15:59:49.385Z,60.96
2022-10-21T16:04:53.620Z,60.89
2022-10-21T16:09:56.717Z,61.01
2022-10-21T16:15:46.458Z,61.22
2022-10-21T16:20:48.917Z,61.65
2022-10-21T16:25:50.995Z,61.66
2022-10-21T16:30:53.795Z,61.54
2022-10-21T16:35:55.880Z,61.58
2022-10-21T16:41:21.614Z,61.77
2022-10-21T16:46:39.761Z,61.89
2022-10-21T16:51:46.258Z,61.90
2022-10-21T16:56:48.785Z,62.02
2022-10-21T17:02:06.517Z,62.16
2022-10-21T17:07:17.284Z,62.21
2022-10-21T17:12:19.266Z,62.37
2022-10-21T17:17:22.476Z,62.46
2022-10-21T17:22:24.601Z,62.16
2022-10-21T17:27:26.533Z,62.00
2022-10-21T17:32:29.831Z,62.21
2022-10-21T17:37:32.235Z,62.54
2022-10-21T17:42:34.270Z,62.45
2022-10-21T17:47:50.535Z,62.13
2022-10-21T17:52:54.544Z,61.98
2022-10-21T17:57:56.728Z,61.91
2022-10-21T18:02:59.099Z,61.88
2022-10-21T18:08:00.958Z,62.00
2022-10-21T18:13:04.423Z,62.26
2022-10-21T18:18:06.711Z,62.59
2022-10-21T18:23:08.490Z,62.66
2022-10-21T18:28:10.935Z,62.72
2022-10-21T18:33:12.841Z,62.79
2022-10-21T18:38:14.917Z,62.83
2022-10-21T18:43:17.323Z,62.96
2022-10-21T18:48:25.879Z,63.90
2022-10-21T18:53:27.720Z,64.90
2022-10-21T18:58:31.227Z,65.90
2022-10-21T19:03:33.451Z,66.76
2022-10-21T19:08:35.441Z,67.35
2022-10-21T19:13:37.445Z,67.53
2022-10-21T19:18:39.438Z,67.78
2022-10-21T19:23:41.367Z,68.01
2022-10-21T19:28:45.219Z,68.28
2022-10-21T19:33:47.499Z,68.57
2022-10-21T19:38:49.543Z,68.76
2022-10-21T19:43:54.718Z,68.86
2022-10-21T19:49:05.995Z,68.86
2022-10-21T19:54:11.973Z,69.32
2022-10-21T19:59:13.856Z,69.62
2022-10-21T20:04:16.317Z,69.78
2022-10-21T20:09:20.678Z,69.94
2022-10-21T20:14:22.557Z,70.16
2022-10-21T20:19:24.945Z,70.68
2022-10-21T20:24:26.925Z,71.13
2022-10-21T20:29:29.309Z,71.50
2022-10-21T20:34:34.198Z,71.61
2022-10-21T20:39:41.257Z,71.71
2022-10-21T20:44:43.242Z,71.39
2022-10-21T20:49:45.215Z,70.95
2022-10-21T20:54:47.608Z,70.61
2022-10-21T20:59:49.424Z,70.33
2022-10-21T21:04:51.362Z,70.03
2022-10-21T21:10:02.059Z,69.74
2022-10-21T21:15:09.403Z,69.41
2022-10-21T21:20:11.387Z,69.33
2022-10-21T21:25:13.353Z,69.28
2022-10-21T21:30:15.568Z,69.11
2022-10-21T21:35:17.571Z,68.83
2022-10-21T21:40:19.555Z,68.65
2022-10-21T21:45:28.442Z,68.46
2022-10-21T21:50:46.422Z,68.42
2022-10-21T21:55:48.463Z,68.36
2022-10-21T22:00:50.395Z,68.37
2022-10-21T22:05:52.282Z,68.27
2022-10-21T22:10:54.153Z,68.23
2022-10-21T22:15:55.850Z,68.18
2022-10-21T22:21:03.248Z,68.18
2022-10-21T22:26:07.035Z,68.08
2022-10-21T22:31:12.396Z,67.93
2022-10-21T22:36:16.809Z,67.74
2022-10-21T22:41:18.845Z,67.43
2022-10-21T22:46:33.388Z,67.27
2022-10-21T22:51:36.281Z,67.10
2022-10-21T22:56:38.501Z,66.95
2022-10-21T23:01:40.322Z,66.94
2022-10-21T23:06:42.151Z,66.99
2022-10-21T23:11:47.366Z,67.14
2022-10-21T23:16:53.271Z,67.27
2022-10-21T23:21:55.160Z,67.30
2022-10-21T23:26:59.152Z,67.34
2022-10-21T23:32:06.791Z,67.32
2022-10-21T23:37:08.842Z,67.23
2022-10-21T23:42:10.721Z,67.20
2022-10-21T23:47:12.742Z,67.10
2022-10-21T23:52:14.640Z,66.90
2022-10-21T23:57:16.464Z,66.80
